Etusivu
METAR-TAF:

METAR-TAF

Lentoasemat :

Lawrence J. Timmerman Airport

Milwaukee, Wisconsin, Yhdysvallat

Leveyspiiri: 43-07N, Pituuspiiri: 088-02W, korkeus merenpinnasta: 227 m

Tämänhetkinen sää

Tämä raportti tehtiin 13 minuuttia sitten, kello 06.15 UTC
Tuuli 4 kn etelästä/lounaasta
Lämpötila 0°C
Kosteus 86%
Ilmanpaine 1008 hPa
Näkyvyys: 16.1 km
Pilvistä 1300 ft:n korkeudessa

METAR: KMWC 190615Z AUTO 21004KT 10SM OVC013 00/M02 A2976 RMK AO2

Aika: 00:28 (06:28 UTC)


TAF: puuttuu

Säähavainnot ja -ennusteet yli 4000 lentoasemalta (METAR- ja TAF-raportit).

Käytössä olevat sääasemat on merkitty karttaan keltaisilla ja punaisilla pisteillä.

Aseta hiiri pisteen päälle nähdäksesi sääaseman nimen.

Klikkaa sitten nähdäksesi säähavainnot ja -ennusteet.

Kartan vaihtaminen: klikkaa mustalla rastilla varustettuja vihreitä pisteitä, niin voit zoomata sisään; viivalla varustettua vihreää pistettä, niin voit zoomata ulos tai vihreitä nuolia, niin pääset viereisille kartoille.


METAR-TAF: